Thatta, Pakistan
Current Conditions -  °F | °C
As of 1:25 AM on Monday 22 Dec 2014 (Local Time) from OPKC Reporting Station
Smoke Smoke  
Wind Chill: 15°   Ceiling: Unl
Heat Index: 15°   Visibility: 2.5mi
Dew Point: 12°   Wind: 3mph
Humidity: 82%   Direction: 60°ENE
Pressure: 29.91"   Gusts: NA
Location:  24.75°N, 67.92°E
Report Text: OPKC 212025Z 06003KT 4000 FU NSC 15/12 Q1013 NOSIG
Loading
Personal Weather Stations






























Interactive Weather Map New forecast layout! Learn more

10-Day Weather Forecast

Advertisements
Track Severe Weather on mobile